sensor_id;sensor_type;location;lat;lon;timestamp;P1;durP1;ratioP1;P2;durP2;ratioP2
4521;SDS011;2273;48.464;11.926;2022-08-16T00:00:28;5.17;;;3.03;;
4521;SDS011;2273;48.464;11.926;2022-08-16T00:02:58;4.70;;;3.10;;
4521;SDS011;2273;48.464;11.926;2022-08-16T00:05:24;4.27;;;3.30;;
4521;SDS011;2273;48.464;11.926;2022-08-16T00:07:50;4.80;;;2.83;;
4521;SDS011;2273;48.464;11.926;2022-08-16T00:10:16;5.60;;;3.33;;
4521;SDS011;2273;48.464;11.926;2022-08-16T00:12:42;4.70;;;3.10;;
4521;SDS011;2273;48.464;11.926;2022-08-16T00:15:16;3.77;;;2.77;;
4521;SDS011;2273;48.464;11.926;2022-08-16T00:17:44;5.00;;;2.90;;
4521;SDS011;2273;48.464;11.926;2022-08-16T00:20:10;4.13;;;3.10;;
4521;SDS011;2273;48.464;11.926;2022-08-16T00:22:37;4.33;;;3.20;;
4521;SDS011;2273;48.464;11.926;2022-08-16T00:25:04;5.73;;;3.37;;
4521;SDS011;2273;48.464;11.926;2022-08-16T00:27:31;4.97;;;3.37;;
4521;SDS011;2273;48.464;11.926;2022-08-16T00:29:56;4.10;;;3.30;;
4521;SDS011;2273;48.464;11.926;2022-08-16T00:32:22;3.60;;;3.03;;
4521;SDS011;2273;48.464;11.926;2022-08-16T00:34:48;3.57;;;3.07;;
4521;SDS011;2273;48.464;11.926;2022-08-16T00:37:13;6.13;;;3.57;;
4521;SDS011;2273;48.464;11.926;2022-08-16T00:39:39;4.80;;;3.23;;
4521;SDS011;2273;48.464;11.926;2022-08-16T00:42:04;4.47;;;2.83;;
4521;SDS011;2273;48.464;11.926;2022-08-16T00:44:30;4.47;;;3.20;;
4521;SDS011;2273;48.464;11.926;2022-08-16T00:46:57;6.67;;;3.87;;
4521;SDS011;2273;48.464;11.926;2022-08-16T00:49:25;4.50;;;3.53;;
4521;SDS011;2273;48.464;11.926;2022-08-16T00:51:51;4.80;;;2.80;;
4521;SDS011;2273;48.464;11.926;2022-08-16T00:54:18;4.47;;;3.30;;
4521;SDS011;2273;48.464;11.926;2022-08-16T00:56:45;5.20;;;3.47;;
4521;SDS011;2273;48.464;11.926;2022-08-16T00:59:12;6.80;;;3.77;;
4521;SDS011;2273;48.464;11.926;2022-08-16T01:01:39;5.07;;;3.23;;
4521;SDS011;2273;48.464;11.926;2022-08-16T01:04:05;7.23;;;3.70;;
4521;SDS011;2273;48.464;11.926;2022-08-16T01:06:32;4.83;;;3.40;;
4521;SDS011;2273;48.464;11.926;2022-08-16T01:08:58;4.53;;;3.40;;
4521;SDS011;2273;48.464;11.926;2022-08-16T01:11:25;4.00;;;3.40;;
4521;SDS011;2273;48.464;11.926;2022-08-16T01:13:52;5.10;;;3.37;;
4521;SDS011;2273;48.464;11.926;2022-08-16T01:16:21;9.30;;;3.27;;
4521;SDS011;2273;48.464;11.926;2022-08-16T01:18:52;6.50;;;3.00;;
4521;SDS011;2273;48.464;11.926;2022-08-16T01:21:28;3.57;;;2.70;;
4521;SDS011;2273;48.464;11.926;2022-08-16T01:26:43;4.40;;;2.93;;
4521;SDS011;2273;48.464;11.926;2022-08-16T01:29:13;4.80;;;3.33;;
4521;SDS011;2273;48.464;11.926;2022-08-16T01:31:41;5.13;;;3.53;;
4521;SDS011;2273;48.464;11.926;2022-08-16T01:34:07;3.07;;;2.77;;
4521;SDS011;2273;48.464;11.926;2022-08-16T01:36:33;3.67;;;2.87;;
4521;SDS011;2273;48.464;11.926;2022-08-16T01:38:59;3.87;;;3.00;;
4521;SDS011;2273;48.464;11.926;2022-08-16T01:41:33;5.40;;;3.30;;
4521;SDS011;2273;48.464;11.926;2022-08-16T01:44:01;3.77;;;3.10;;
4521;SDS011;2273;48.464;11.926;2022-08-16T01:46:35;10.73;;;3.43;;
4521;SDS011;2273;48.464;11.926;2022-08-16T01:49:12;3.47;;;3.17;;
4521;SDS011;2273;48.464;11.926;2022-08-16T01:51:42;7.90;;;3.60;;
4521;SDS011;2273;48.464;11.926;2022-08-16T01:54:09;4.13;;;3.67;;
4521;SDS011;2273;48.464;11.926;2022-08-16T01:56:43;5.03;;;3.50;;
4521;SDS011;2273;48.464;11.926;2022-08-16T01:59:10;6.87;;;3.60;;
4521;SDS011;2273;48.464;11.926;2022-08-16T02:01:37;6.90;;;3.50;;
4521;SDS011;2273;48.464;11.926;2022-08-16T02:04:03;5.50;;;3.10;;
4521;SDS011;2273;48.464;11.926;2022-08-16T02:06:28;5.47;;;3.00;;
4521;SDS011;2273;48.464;11.926;2022-08-16T02:08:54;4.60;;;3.27;;
4521;SDS011;2273;48.464;11.926;2022-08-16T02:11:21;5.37;;;3.80;;
4521;SDS011;2273;48.464;11.926;2022-08-16T02:13:47;5.10;;;3.40;;
4521;SDS011;2273;48.464;11.926;2022-08-16T02:16:16;6.40;;;3.37;;
4521;SDS011;2273;48.464;11.926;2022-08-16T02:18:41;6.07;;;3.47;;
4521;SDS011;2273;48.464;11.926;2022-08-16T02:21:07;6.80;;;3.20;;
4521;SDS011;2273;48.464;11.926;2022-08-16T02:23:35;4.43;;;3.40;;
4521;SDS011;2273;48.464;11.926;2022-08-16T02:26:01;4.23;;;3.43;;
4521;SDS011;2273;48.464;11.926;2022-08-16T02:28:26;4.10;;;3.17;;
4521;SDS011;2273;48.464;11.926;2022-08-16T02:30:53;4.30;;;3.37;;
4521;SDS011;2273;48.464;11.926;2022-08-16T02:33:20;3.97;;;2.90;;
4521;SDS011;2273;48.464;11.926;2022-08-16T02:35:46;6.03;;;3.13;;
4521;SDS011;2273;48.464;11.926;2022-08-16T02:38:12;3.90;;;3.23;;
4521;SDS011;2273;48.464;11.926;2022-08-16T02:40:37;3.50;;;3.10;;
4521;SDS011;2273;48.464;11.926;2022-08-16T02:43:04;5.47;;;3.30;;
4521;SDS011;2273;48.464;11.926;2022-08-16T02:45:29;4.00;;;3.30;;
4521;SDS011;2273;48.464;11.926;2022-08-16T02:47:55;3.53;;;2.87;;
4521;SDS011;2273;48.464;11.926;2022-08-16T02:50:21;4.20;;;3.00;;
4521;SDS011;2273;48.464;11.926;2022-08-16T02:52:46;3.80;;;3.33;;
4521;SDS011;2273;48.464;11.926;2022-08-16T02:55:12;6.23;;;3.70;;
4521;SDS011;2273;48.464;11.926;2022-08-16T02:57:38;4.80;;;3.27;;
4521;SDS011;2273;48.464;11.926;2022-08-16T03:00:05;4.30;;;3.50;;
4521;SDS011;2273;48.464;11.926;2022-08-16T03:02:37;4.07;;;3.20;;
4521;SDS011;2273;48.464;11.926;2022-08-16T03:05:07;6.23;;;3.20;;
4521;SDS011;2273;48.464;11.926;2022-08-16T03:07:34;3.83;;;3.23;;
4521;SDS011;2273;48.464;11.926;2022-08-16T03:10:00;4.63;;;3.30;;
4521;SDS011;2273;48.464;11.926;2022-08-16T03:12:27;4.20;;;3.50;;
4521;SDS011;2273;48.464;11.926;2022-08-16T03:14:52;5.63;;;3.40;;
4521;SDS011;2273;48.464;11.926;2022-08-16T03:17:19;10.23;;;3.10;;
4521;SDS011;2273;48.464;11.926;2022-08-16T03:19:48;7.27;;;3.70;;
4521;SDS011;2273;48.464;11.926;2022-08-16T03:22:16;4.63;;;3.63;;
4521;SDS011;2273;48.464;11.926;2022-08-16T03:24:42;4.80;;;3.90;;
4521;SDS011;2273;48.464;11.926;2022-08-16T03:27:08;7.23;;;3.40;;
4521;SDS011;2273;48.464;11.926;2022-08-16T03:29:34;5.20;;;3.27;;
4521;SDS011;2273;48.464;11.926;2022-08-16T03:32:02;3.30;;;3.00;;
4521;SDS011;2273;48.464;11.926;2022-08-16T03:34:28;3.60;;;2.93;;
4521;SDS011;2273;48.464;11.926;2022-08-16T03:36:55;4.60;;;3.33;;
4521;SDS011;2273;48.464;11.926;2022-08-16T03:39:21;3.73;;;3.20;;
4521;SDS011;2273;48.464;11.926;2022-08-16T03:41:47;7.67;;;3.33;;
4521;SDS011;2273;48.464;11.926;2022-08-16T03:44:13;3.67;;;3.30;;
4521;SDS011;2273;48.464;11.926;2022-08-16T03:46:39;4.17;;;3.20;;
4521;SDS011;2273;48.464;11.926;2022-08-16T03:49:04;4.57;;;3.27;;
4521;SDS011;2273;48.464;11.926;2022-08-16T03:51:33;4.77;;;3.87;;
4521;SDS011;2273;48.464;11.926;2022-08-16T03:54:02;6.00;;;4.37;;
4521;SDS011;2273;48.464;11.926;2022-08-16T03:56:30;6.03;;;4.60;;
4521;SDS011;2273;48.464;11.926;2022-08-16T03:58:57;5.70;;;4.20;;
4521;SDS011;2273;48.464;11.926;2022-08-16T04:01:26;4.77;;;3.60;;
4521;SDS011;2273;48.464;11.926;2022-08-16T04:03:52;8.33;;;3.90;;
4521;SDS011;2273;48.464;11.926;2022-08-16T04:06:18;5.93;;;3.90;;
4521;SDS011;2273;48.464;11.926;2022-08-16T04:08:45;4.73;;;3.40;;
4521;SDS011;2273;48.464;11.926;2022-08-16T04:11:12;3.60;;;3.03;;
4521;SDS011;2273;48.464;11.926;2022-08-16T04:13:38;4.97;;;3.80;;
4521;SDS011;2273;48.464;11.926;2022-08-16T04:16:04;4.83;;;3.60;;
4521;SDS011;2273;48.464;11.926;2022-08-16T04:18:30;4.20;;;3.57;;
4521;SDS011;2273;48.464;11.926;2022-08-16T04:20:57;4.00;;;3.60;;
4521;SDS011;2273;48.464;11.926;2022-08-16T04:23:25;9.93;;;3.50;;
4521;SDS011;2273;48.464;11.926;2022-08-16T04:25:52;4.70;;;3.30;;
4521;SDS011;2273;48.464;11.926;2022-08-16T04:28:18;4.40;;;3.43;;
4521;SDS011;2273;48.464;11.926;2022-08-16T04:30:44;4.43;;;3.37;;
4521;SDS011;2273;48.464;11.926;2022-08-16T04:33:10;4.90;;;3.80;;
4521;SDS011;2273;48.464;11.926;2022-08-16T04:35:38;6.60;;;4.00;;
4521;SDS011;2273;48.464;11.926;2022-08-16T04:38:05;4.13;;;3.73;;
4521;SDS011;2273;48.464;11.926;2022-08-16T04:40:38;3.73;;;3.30;;
4521;SDS011;2273;48.464;11.926;2022-08-16T04:43:04;5.37;;;3.30;;
4521;SDS011;2273;48.464;11.926;2022-08-16T04:45:30;5.23;;;4.00;;
4521;SDS011;2273;48.464;11.926;2022-08-16T04:47:56;4.50;;;3.60;;
4521;SDS011;2273;48.464;11.926;2022-08-16T04:50:26;7.53;;;4.23;;
4521;SDS011;2273;48.464;11.926;2022-08-16T04:52:56;4.33;;;3.53;;
4521;SDS011;2273;48.464;11.926;2022-08-16T04:55:23;5.10;;;4.20;;
4521;SDS011;2273;48.464;11.926;2022-08-16T04:57:52;5.70;;;4.07;;
4521;SDS011;2273;48.464;11.926;2022-08-16T05:00:20;5.83;;;4.03;;
4521;SDS011;2273;48.464;11.926;2022-08-16T05:02:48;7.10;;;3.63;;
4521;SDS011;2273;48.464;11.926;2022-08-16T05:05:14;4.83;;;3.80;;
4521;SDS011;2273;48.464;11.926;2022-08-16T05:07:40;7.33;;;3.87;;
4521;SDS011;2273;48.464;11.926;2022-08-16T05:10:07;7.33;;;4.10;;
4521;SDS011;2273;48.464;11.926;2022-08-16T05:12:34;8.20;;;4.13;;
4521;SDS011;2273;48.464;11.926;2022-08-16T05:15:00;5.30;;;4.10;;
4521;SDS011;2273;48.464;11.926;2022-08-16T05:17:27;4.80;;;3.70;;
4521;SDS011;2273;48.464;11.926;2022-08-16T05:19:57;8.83;;;4.87;;
4521;SDS011;2273;48.464;11.926;2022-08-16T05:22:23;9.83;;;4.80;;
4521;SDS011;2273;48.464;11.926;2022-08-16T05:24:52;6.30;;;4.40;;
4521;SDS011;2273;48.464;11.926;2022-08-16T05:27:17;6.77;;;5.30;;
4521;SDS011;2273;48.464;11.926;2022-08-16T05:29:43;5.00;;;4.33;;
4521;SDS011;2273;48.464;11.926;2022-08-16T05:32:13;9.47;;;4.53;;
4521;SDS011;2273;48.464;11.926;2022-08-16T05:34:39;7.77;;;4.90;;
4521;SDS011;2273;48.464;11.926;2022-08-16T05:37:04;7.60;;;4.40;;
4521;SDS011;2273;48.464;11.926;2022-08-16T05:39:34;5.67;;;4.17;;
4521;SDS011;2273;48.464;11.926;2022-08-16T05:41:59;10.80;;;4.30;;
4521;SDS011;2273;48.464;11.926;2022-08-16T05:44:25;7.70;;;4.10;;
4521;SDS011;2273;48.464;11.926;2022-08-16T05:46:56;13.60;;;4.50;;
4521;SDS011;2273;48.464;11.926;2022-08-16T05:49:24;9.93;;;4.63;;
4521;SDS011;2273;48.464;11.926;2022-08-16T05:51:55;6.77;;;4.27;;
4521;SDS011;2273;48.464;11.926;2022-08-16T05:54:20;11.73;;;4.40;;
4521;SDS011;2273;48.464;11.926;2022-08-16T05:56:47;11.47;;;4.07;;
4521;SDS011;2273;48.464;11.926;2022-08-16T05:59:14;6.30;;;4.07;;
4521;SDS011;2273;48.464;11.926;2022-08-16T06:01:41;7.00;;;4.40;;
4521;SDS011;2273;48.464;11.926;2022-08-16T06:04:09;5.90;;;3.83;;
4521;SDS011;2273;48.464;11.926;2022-08-16T06:06:40;5.00;;;4.20;;
4521;SDS011;2273;48.464;11.926;2022-08-16T06:09:06;6.90;;;4.33;;
4521;SDS011;2273;48.464;11.926;2022-08-16T06:11:32;5.67;;;4.10;;
4521;SDS011;2273;48.464;11.926;2022-08-16T06:14:00;4.67;;;3.90;;
4521;SDS011;2273;48.464;11.926;2022-08-16T06:16:34;4.83;;;4.07;;
4521;SDS011;2273;48.464;11.926;2022-08-16T06:18:59;4.87;;;3.70;;
4521;SDS011;2273;48.464;11.926;2022-08-16T06:21:25;4.40;;;4.00;;
4521;SDS011;2273;48.464;11.926;2022-08-16T06:23:57;4.93;;;3.37;;
4521;SDS011;2273;48.464;11.926;2022-08-16T06:26:23;6.50;;;3.47;;
4521;SDS011;2273;48.464;11.926;2022-08-16T06:28:49;3.60;;;3.10;;
4521;SDS011;2273;48.464;11.926;2022-08-16T06:31:20;4.90;;;3.20;;
4521;SDS011;2273;48.464;11.926;2022-08-16T06:33:46;4.50;;;3.43;;
4521;SDS011;2273;48.464;11.926;2022-08-16T06:36:15;4.33;;;3.43;;
4521;SDS011;2273;48.464;11.926;2022-08-16T06:38:49;3.27;;;2.80;;
4521;SDS011;2273;48.464;11.926;2022-08-16T06:41:21;5.33;;;3.20;;
4521;SDS011;2273;48.464;11.926;2022-08-16T06:43:47;5.27;;;3.67;;
4521;SDS011;2273;48.464;11.926;2022-08-16T06:46:26;4.80;;;3.27;;
4521;SDS011;2273;48.464;11.926;2022-08-16T06:48:53;5.30;;;3.80;;
4521;SDS011;2273;48.464;11.926;2022-08-16T06:51:18;5.53;;;3.30;;
4521;SDS011;2273;48.464;11.926;2022-08-16T06:53:44;4.03;;;3.50;;
4521;SDS011;2273;48.464;11.926;2022-08-16T06:56:10;9.33;;;3.00;;
4521;SDS011;2273;48.464;11.926;2022-08-16T06:58:50;7.37;;;4.00;;
4521;SDS011;2273;48.464;11.926;2022-08-16T07:01:20;5.80;;;3.40;;
4521;SDS011;2273;48.464;11.926;2022-08-16T07:03:48;4.33;;;3.57;;
4521;SDS011;2273;48.464;11.926;2022-08-16T07:06:14;7.23;;;3.93;;
4521;SDS011;2273;48.464;11.926;2022-08-16T07:08:43;8.13;;;3.50;;
4521;SDS011;2273;48.464;11.926;2022-08-16T07:11:10;3.43;;;3.13;;
4521;SDS011;2273;48.464;11.926;2022-08-16T07:13:36;9.70;;;3.80;;
4521;SDS011;2273;48.464;11.926;2022-08-16T07:16:03;4.57;;;3.30;;
4521;SDS011;2273;48.464;11.926;2022-08-16T07:18:31;6.70;;;3.23;;
4521;SDS011;2273;48.464;11.926;2022-08-16T07:20:56;19.57;;;4.30;;
4521;SDS011;2273;48.464;11.926;2022-08-16T07:23:24;6.57;;;3.63;;
4521;SDS011;2273;48.464;11.926;2022-08-16T07:25:54;8.47;;;3.50;;
4521;SDS011;2273;48.464;11.926;2022-08-16T07:28:21;5.67;;;3.23;;
4521;SDS011;2273;48.464;11.926;2022-08-16T07:30:48;4.10;;;3.00;;
4521;SDS011;2273;48.464;11.926;2022-08-16T07:33:25;5.37;;;3.20;;
4521;SDS011;2273;48.464;11.926;2022-08-16T07:35:51;6.87;;;3.30;;
4521;SDS011;2273;48.464;11.926;2022-08-16T07:38:18;4.70;;;2.80;;
4521;SDS011;2273;48.464;11.926;2022-08-16T07:40:51;3.90;;;3.10;;
4521;SDS011;2273;48.464;11.926;2022-08-16T07:43:18;6.90;;;3.20;;
4521;SDS011;2273;48.464;11.926;2022-08-16T07:45:43;3.17;;;2.87;;
4521;SDS011;2273;48.464;11.926;2022-08-16T07:48:10;5.93;;;3.23;;
4521;SDS011;2273;48.464;11.926;2022-08-16T07:50:39;4.40;;;2.93;;
4521;SDS011;2273;48.464;11.926;2022-08-16T07:53:06;5.57;;;3.33;;
4521;SDS011;2273;48.464;11.926;2022-08-16T07:55:32;5.70;;;3.10;;
4521;SDS011;2273;48.464;11.926;2022-08-16T07:57:58;7.00;;;3.30;;
4521;SDS011;2273;48.464;11.926;2022-08-16T08:00:23;5.17;;;3.50;;
4521;SDS011;2273;48.464;11.926;2022-08-16T08:02:49;6.20;;;3.40;;
4521;SDS011;2273;48.464;11.926;2022-08-16T08:05:21;7.07;;;3.27;;
4521;SDS011;2273;48.464;11.926;2022-08-16T08:07:49;4.50;;;3.17;;
4521;SDS011;2273;48.464;11.926;2022-08-16T08:10:17;6.13;;;3.53;;
4521;SDS011;2273;48.464;11.926;2022-08-16T08:12:45;10.70;;;3.93;;
4521;SDS011;2273;48.464;11.926;2022-08-16T08:15:12;5.00;;;3.10;;
4521;SDS011;2273;48.464;11.926;2022-08-16T08:17:39;4.87;;;3.20;;
4521;SDS011;2273;48.464;11.926;2022-08-16T08:20:06;6.83;;;3.07;;
4521;SDS011;2273;48.464;11.926;2022-08-16T08:22:33;7.10;;;3.63;;
4521;SDS011;2273;48.464;11.926;2022-08-16T08:25:02;4.60;;;3.60;;
4521;SDS011;2273;48.464;11.926;2022-08-16T08:27:28;6.57;;;3.40;;
4521;SDS011;2273;48.464;11.926;2022-08-16T08:29:54;4.30;;;3.27;;
4521;SDS011;2273;48.464;11.926;2022-08-16T08:32:20;5.03;;;3.53;;
4521;SDS011;2273;48.464;11.926;2022-08-16T08:34:47;5.00;;;3.70;;
4521;SDS011;2273;48.464;11.926;2022-08-16T08:37:13;10.53;;;4.07;;
4521;SDS011;2273;48.464;11.926;2022-08-16T08:39:40;6.93;;;3.60;;
4521;SDS011;2273;48.464;11.926;2022-08-16T08:42:06;5.00;;;3.70;;
4521;SDS011;2273;48.464;11.926;2022-08-16T08:44:34;8.10;;;3.80;;
4521;SDS011;2273;48.464;11.926;2022-08-16T08:47:04;4.07;;;3.40;;
4521;SDS011;2273;48.464;11.926;2022-08-16T08:49:32;4.77;;;3.30;;
4521;SDS011;2273;48.464;11.926;2022-08-16T08:51:58;3.87;;;3.47;;
4521;SDS011;2273;48.464;11.926;2022-08-16T08:54:24;6.00;;;3.43;;
4521;SDS011;2273;48.464;11.926;2022-08-16T08:56:53;4.37;;;3.47;;
4521;SDS011;2273;48.464;11.926;2022-08-16T08:59:48;4.13;;;3.53;;
4521;SDS011;2273;48.464;11.926;2022-08-16T09:02:14;8.13;;;4.03;;
4521;SDS011;2273;48.464;11.926;2022-08-16T09:04:47;9.23;;;3.97;;
4521;SDS011;2273;48.464;11.926;2022-08-16T09:07:14;6.53;;;3.77;;
4521;SDS011;2273;48.464;11.926;2022-08-16T09:09:39;4.53;;;3.80;;
4521;SDS011;2273;48.464;11.926;2022-08-16T09:12:07;5.67;;;3.87;;
4521;SDS011;2273;48.464;11.926;2022-08-16T09:14:51;4.73;;;3.53;;
4521;SDS011;2273;48.464;11.926;2022-08-16T09:17:20;4.23;;;3.70;;
4521;SDS011;2273;48.464;11.926;2022-08-16T09:19:45;6.07;;;3.63;;
4521;SDS011;2273;48.464;11.926;2022-08-16T09:22:11;4.33;;;3.37;;
4521;SDS011;2273;48.464;11.926;2022-08-16T09:24:36;3.70;;;3.40;;
4521;SDS011;2273;48.464;11.926;2022-08-16T09:27:03;13.17;;;3.80;;
4521;SDS011;2273;48.464;11.926;2022-08-16T09:29:29;4.00;;;3.47;;
4521;SDS011;2273;48.464;11.926;2022-08-16T09:31:56;4.73;;;3.33;;
4521;SDS011;2273;48.464;11.926;2022-08-16T09:34:22;6.47;;;3.60;;
4521;SDS011;2273;48.464;11.926;2022-08-16T09:36:48;5.00;;;3.83;;
4521;SDS011;2273;48.464;11.926;2022-08-16T09:39:13;3.60;;;3.13;;
4521;SDS011;2273;48.464;11.926;2022-08-16T09:41:39;6.33;;;3.43;;
4521;SDS011;2273;48.464;11.926;2022-08-16T09:44:06;7.50;;;4.37;;
4521;SDS011;2273;48.464;11.926;2022-08-16T09:46:32;5.10;;;3.50;;
4521;SDS011;2273;48.464;11.926;2022-08-16T09:48:57;5.73;;;3.37;;
4521;SDS011;2273;48.464;11.926;2022-08-16T09:51:23;5.00;;;3.40;;
4521;SDS011;2273;48.464;11.926;2022-08-16T09:53:53;8.30;;;3.60;;
4521;SDS011;2273;48.464;11.926;2022-08-16T09:56:26;12.37;;;3.30;;
4521;SDS011;2273;48.464;11.926;2022-08-16T09:58:55;3.47;;;3.17;;
4521;SDS011;2273;48.464;11.926;2022-08-16T10:01:21;4.00;;;3.20;;
4521;SDS011;2273;48.464;11.926;2022-08-16T10:03:46;3.63;;;3.27;;
4521;SDS011;2273;48.464;11.926;2022-08-16T10:06:12;4.13;;;3.10;;
4521;SDS011;2273;48.464;11.926;2022-08-16T10:08:37;5.83;;;3.30;;
4521;SDS011;2273;48.464;11.926;2022-08-16T10:11:03;5.13;;;3.30;;
4521;SDS011;2273;48.464;11.926;2022-08-16T10:13:47;6.50;;;3.43;;
4521;SDS011;2273;48.464;11.926;2022-08-16T10:16:13;5.83;;;3.33;;
4521;SDS011;2273;48.464;11.926;2022-08-16T10:18:39;4.97;;;3.30;;
4521;SDS011;2273;48.464;11.926;2022-08-16T10:21:06;5.83;;;3.30;;
4521;SDS011;2273;48.464;11.926;2022-08-16T10:23:31;4.13;;;3.17;;
4521;SDS011;2273;48.464;11.926;2022-08-16T10:25:57;3.80;;;3.30;;
4521;SDS011;2273;48.464;11.926;2022-08-16T10:28:23;4.10;;;2.97;;
4521;SDS011;2273;48.464;11.926;2022-08-16T10:30:49;4.43;;;3.40;;
4521;SDS011;2273;48.464;11.926;2022-08-16T10:33:15;7.43;;;3.03;;
4521;SDS011;2273;48.464;11.926;2022-08-16T10:35:41;3.70;;;2.83;;
4521;SDS011;2273;48.464;11.926;2022-08-16T10:38:07;4.13;;;3.03;;
4521;SDS011;2273;48.464;11.926;2022-08-16T10:40:33;3.60;;;3.13;;
4521;SDS011;2273;48.464;11.926;2022-08-16T10:42:59;5.30;;;3.50;;
4521;SDS011;2273;48.464;11.926;2022-08-16T10:45:25;7.33;;;2.60;;
4521;SDS011;2273;48.464;11.926;2022-08-16T10:47:51;4.43;;;2.80;;
4521;SDS011;2273;48.464;11.926;2022-08-16T10:50:17;5.10;;;3.00;;
4521;SDS011;2273;48.464;11.926;2022-08-16T10:52:42;6.83;;;3.40;;
4521;SDS011;2273;48.464;11.926;2022-08-16T10:55:08;7.53;;;2.53;;
4521;SDS011;2273;48.464;11.926;2022-08-16T10:57:37;7.33;;;2.90;;
4521;SDS011;2273;48.464;11.926;2022-08-16T11:00:08;2.83;;;2.40;;
4521;SDS011;2273;48.464;11.926;2022-08-16T11:02:37;3.77;;;2.57;;
4521;SDS011;2273;48.464;11.926;2022-08-16T11:05:04;2.97;;;2.63;;
4521;SDS011;2273;48.464;11.926;2022-08-16T11:07:31;3.50;;;2.70;;
4521;SDS011;2273;48.464;11.926;2022-08-16T11:09:57;4.10;;;2.80;;
4521;SDS011;2273;48.464;11.926;2022-08-16T11:12:26;6.33;;;2.97;;
4521;SDS011;2273;48.464;11.926;2022-08-16T11:14:52;5.87;;;3.27;;
4521;SDS011;2273;48.464;11.926;2022-08-16T11:17:17;3.27;;;2.80;;
4521;SDS011;2273;48.464;11.926;2022-08-16T11:19:43;3.63;;;2.60;;
4521;SDS011;2273;48.464;11.926;2022-08-16T11:22:08;4.90;;;2.47;;
4521;SDS011;2273;48.464;11.926;2022-08-16T11:24:34;9.13;;;2.53;;
4521;SDS011;2273;48.464;11.926;2022-08-16T11:27:04;4.53;;;3.00;;
4521;SDS011;2273;48.464;11.926;2022-08-16T11:29:34;2.97;;;2.50;;
4521;SDS011;2273;48.464;11.926;2022-08-16T11:32:00;4.40;;;2.80;;
4521;SDS011;2273;48.464;11.926;2022-08-16T11:34:26;5.50;;;2.40;;
4521;SDS011;2273;48.464;11.926;2022-08-16T11:36:51;6.07;;;2.40;;
4521;SDS011;2273;48.464;11.926;2022-08-16T11:39:17;3.00;;;2.40;;
4521;SDS011;2273;48.464;11.926;2022-08-16T11:41:43;4.10;;;2.40;;
4521;SDS011;2273;48.464;11.926;2022-08-16T11:44:09;4.10;;;2.30;;
4521;SDS011;2273;48.464;11.926;2022-08-16T11:46:35;2.70;;;2.37;;
4521;SDS011;2273;48.464;11.926;2022-08-16T11:49:02;6.33;;;2.43;;
4521;SDS011;2273;48.464;11.926;2022-08-16T11:51:28;5.13;;;2.63;;
4521;SDS011;2273;48.464;11.926;2022-08-16T11:53:54;6.17;;;2.90;;
4521;SDS011;2273;48.464;11.926;2022-08-16T11:56:20;3.50;;;2.60;;
4521;SDS011;2273;48.464;11.926;2022-08-16T11:58:46;2.80;;;2.60;;
4521;SDS011;2273;48.464;11.926;2022-08-16T12:01:11;2.73;;;2.50;;
4521;SDS011;2273;48.464;11.926;2022-08-16T12:03:39;5.60;;;3.20;;
4521;SDS011;2273;48.464;11.926;2022-08-16T12:06:10;4.20;;;2.50;;
4521;SDS011;2273;48.464;11.926;2022-08-16T12:08:41;2.70;;;2.23;;
4521;SDS011;2273;48.464;11.926;2022-08-16T12:11:08;3.00;;;2.60;;
4521;SDS011;2273;48.464;11.926;2022-08-16T12:13:34;2.67;;;2.40;;
4521;SDS011;2273;48.464;11.926;2022-08-16T12:16:00;3.97;;;2.73;;
4521;SDS011;2273;48.464;11.926;2022-08-16T12:18:26;4.80;;;2.53;;
4521;SDS011;2273;48.464;11.926;2022-08-16T12:20:52;3.23;;;2.70;;
4521;SDS011;2273;48.464;11.926;2022-08-16T12:23:17;5.90;;;2.50;;
4521;SDS011;2273;48.464;11.926;2022-08-16T12:25:43;2.50;;;2.30;;
4521;SDS011;2273;48.464;11.926;2022-08-16T12:28:09;3.70;;;2.73;;
4521;SDS011;2273;48.464;11.926;2022-08-16T12:30:36;4.37;;;2.70;;
4521;SDS011;2273;48.464;11.926;2022-08-16T12:33:04;3.43;;;2.43;;
4521;SDS011;2273;48.464;11.926;2022-08-16T12:35:31;4.50;;;2.47;;
4521;SDS011;2273;48.464;11.926;2022-08-16T12:37:58;5.40;;;2.60;;
4521;SDS011;2273;48.464;11.926;2022-08-16T12:40:26;7.23;;;2.37;;
4521;SDS011;2273;48.464;11.926;2022-08-16T12:42:56;6.97;;;2.40;;
4521;SDS011;2273;48.464;11.926;2022-08-16T12:45:23;2.83;;;2.37;;
4521;SDS011;2273;48.464;11.926;2022-08-16T12:47:49;2.53;;;2.33;;
4521;SDS011;2273;48.464;11.926;2022-08-16T12:50:34;8.73;;;2.80;;
4521;SDS011;2273;48.464;11.926;2022-08-16T12:52:59;4.23;;;2.57;;
4521;SDS011;2273;48.464;11.926;2022-08-16T12:55:25;4.03;;;2.20;;
4521;SDS011;2273;48.464;11.926;2022-08-16T12:57:54;4.00;;;2.80;;
4521;SDS011;2273;48.464;11.926;2022-08-16T13:00:21;4.53;;;2.47;;
4521;SDS011;2273;48.464;11.926;2022-08-16T13:02:48;5.10;;;2.70;;
4521;SDS011;2273;48.464;11.926;2022-08-16T13:05:14;3.20;;;2.53;;
4521;SDS011;2273;48.464;11.926;2022-08-16T13:07:41;2.50;;;2.30;;
4521;SDS011;2273;48.464;11.926;2022-08-16T13:10:08;2.20;;;2.00;;
4521;SDS011;2273;48.464;11.926;2022-08-16T13:12:39;4.83;;;2.57;;
4521;SDS011;2273;48.464;11.926;2022-08-16T13:15:11;2.50;;;2.30;;
4521;SDS011;2273;48.464;11.926;2022-08-16T13:17:39;5.70;;;2.63;;
4521;SDS011;2273;48.464;11.926;2022-08-16T13:20:06;3.80;;;2.30;;
4521;SDS011;2273;48.464;11.926;2022-08-16T13:22:33;4.30;;;2.53;;
4521;SDS011;2273;48.464;11.926;2022-08-16T13:25:03;3.60;;;2.50;;
4521;SDS011;2273;48.464;11.926;2022-08-16T13:27:31;2.50;;;2.30;;
4521;SDS011;2273;48.464;11.926;2022-08-16T13:29:56;4.20;;;2.77;;
4521;SDS011;2273;48.464;11.926;2022-08-16T13:32:21;4.90;;;2.93;;
4521;SDS011;2273;48.464;11.926;2022-08-16T13:34:47;7.10;;;2.40;;
4521;SDS011;2273;48.464;11.926;2022-08-16T13:37:12;9.50;;;2.30;;
4521;SDS011;2273;48.464;11.926;2022-08-16T13:39:38;3.20;;;2.57;;
4521;SDS011;2273;48.464;11.926;2022-08-16T13:42:07;3.10;;;2.50;;
4521;SDS011;2273;48.464;11.926;2022-08-16T13:44:34;7.00;;;2.60;;
4521;SDS011;2273;48.464;11.926;2022-08-16T13:47:01;4.83;;;2.40;;
4521;SDS011;2273;48.464;11.926;2022-08-16T13:49:26;4.20;;;2.33;;
4521;SDS011;2273;48.464;11.926;2022-08-16T13:51:52;3.13;;;2.33;;
4521;SDS011;2273;48.464;11.926;2022-08-16T13:54:17;2.50;;;2.30;;
4521;SDS011;2273;48.464;11.926;2022-08-16T13:56:43;5.40;;;2.50;;
4521;SDS011;2273;48.464;11.926;2022-08-16T13:59:10;3.87;;;2.60;;
4521;SDS011;2273;48.464;11.926;2022-08-16T14:01:38;6.97;;;2.60;;
4521;SDS011;2273;48.464;11.926;2022-08-16T14:04:04;3.37;;;2.57;;
4521;SDS011;2273;48.464;11.926;2022-08-16T14:06:29;6.03;;;2.30;;
4521;SDS011;2273;48.464;11.926;2022-08-16T14:08:55;1.90;;;1.80;;
4521;SDS011;2273;48.464;11.926;2022-08-16T14:11:21;5.73;;;2.40;;
4521;SDS011;2273;48.464;11.926;2022-08-16T14:13:46;5.33;;;2.50;;
4521;SDS011;2273;48.464;11.926;2022-08-16T14:16:11;3.77;;;2.50;;
4521;SDS011;2273;48.464;11.926;2022-08-16T14:18:37;5.03;;;2.60;;
4521;SDS011;2273;48.464;11.926;2022-08-16T14:21:03;2.60;;;2.30;;
4521;SDS011;2273;48.464;11.926;2022-08-16T14:23:29;8.20;;;2.70;;
4521;SDS011;2273;48.464;11.926;2022-08-16T14:25:54;2.90;;;2.40;;
4521;SDS011;2273;48.464;11.926;2022-08-16T14:28:21;7.20;;;2.70;;
4521;SDS011;2273;48.464;11.926;2022-08-16T14:30:46;9.77;;;2.80;;
4521;SDS011;2273;48.464;11.926;2022-08-16T14:33:11;2.77;;;2.20;;
4521;SDS011;2273;48.464;11.926;2022-08-16T14:35:37;5.30;;;2.40;;
4521;SDS011;2273;48.464;11.926;2022-08-16T14:38:04;4.77;;;2.60;;
4521;SDS011;2273;48.464;11.926;2022-08-16T14:40:30;6.00;;;2.70;;
4521;SDS011;2273;48.464;11.926;2022-08-16T14:42:55;3.30;;;2.70;;
4521;SDS011;2273;48.464;11.926;2022-08-16T14:45:23;4.70;;;2.77;;
4521;SDS011;2273;48.464;11.926;2022-08-16T14:47:50;4.53;;;2.67;;
4521;SDS011;2273;48.464;11.926;2022-08-16T14:50:17;5.30;;;2.80;;
4521;SDS011;2273;48.464;11.926;2022-08-16T14:52:46;4.67;;;2.60;;
4521;SDS011;2273;48.464;11.926;2022-08-16T14:55:33;4.53;;;2.67;;
4521;SDS011;2273;48.464;11.926;2022-08-16T14:57:59;5.50;;;2.30;;
4521;SDS011;2273;48.464;11.926;2022-08-16T15:00:26;3.60;;;2.50;;
4521;SDS011;2273;48.464;11.926;2022-08-16T15:02:53;4.20;;;2.57;;